createdAt,value
2018-12-19T00:00:39.690Z,95968.70
2018-12-19T00:03:08.906Z,95965.02
2018-12-19T00:05:38.142Z,95963.00
2018-12-19T00:08:07.462Z,95957.14
2018-12-19T00:10:36.664Z,95962.09
2018-12-19T00:13:05.902Z,95954.66
2018-12-19T00:15:35.022Z,95946.92
2018-12-19T00:18:04.311Z,95934.98
2018-12-19T00:20:33.559Z,95942.34
2018-12-19T00:23:02.886Z,95943.39
2018-12-19T00:25:32.133Z,95946.53
2018-12-19T00:28:01.354Z,95859.41
2018-12-19T00:30:30.463Z,95933.71
2018-12-19T00:32:59.635Z,95926.94
2018-12-19T00:35:28.727Z,95923.92
2018-12-19T00:37:57.855Z,95921.31
2018-12-19T00:40:27.044Z,95916.73
2018-12-19T00:42:56.151Z,95913.58
2018-12-19T00:45:25.455Z,95912.31
2018-12-19T00:47:54.707Z,95916.59
2018-12-19T00:50:23.921Z,95921.70
2018-12-19T00:52:53.203Z,95929.48
2018-12-19T00:55:22.613Z,95924.84
2018-12-19T00:57:51.794Z,95924.83
2018-12-19T01:00:20.913Z,95923.86
2018-12-19T01:02:50.228Z,95927.50
2018-12-19T01:05:19.479Z,95926.74
2018-12-19T01:07:48.623Z,95925.10
2018-12-19T01:10:17.895Z,95923.13
2018-12-19T01:12:47.763Z,95924.95
2018-12-19T01:15:16.984Z,95922.69
2018-12-19T01:17:46.091Z,95925.88
2018-12-19T01:20:15.226Z,95928.27
2018-12-19T01:22:45.057Z,95932.33
2018-12-19T01:25:14.287Z,95925.88
2018-12-19T01:27:43.418Z,95924.09
2018-12-19T01:30:12.631Z,95919.09
2018-12-19T01:32:42.107Z,95920.20
2018-12-19T01:35:11.449Z,95925.23
2018-12-19T01:37:40.825Z,95917.47
2018-12-19T01:40:10.081Z,95916.65
2018-12-19T01:42:39.731Z,95910.34
2018-12-19T01:45:09.591Z,95925.77
2018-12-19T01:47:39.447Z,95931.39
2018-12-19T01:50:08.990Z,95920.20
2018-12-19T01:52:38.135Z,95912.14
2018-12-19T01:55:07.447Z,95919.11
2018-12-19T01:57:36.570Z,95917.64
2018-12-19T02:00:06.083Z,95912.73
2018-12-19T02:02:35.503Z,95922.70
2018-12-19T02:05:04.850Z,95925.30
2018-12-19T02:07:33.991Z,95922.05
2018-12-19T02:10:03.180Z,95920.81
2018-12-19T02:12:32.475Z,95917.69
2018-12-19T02:15:01.629Z,95915.84
2018-12-19T02:17:31.175Z,95916.48
2018-12-19T02:20:00.344Z,95919.69
2018-12-19T02:22:29.455Z,95923.27
2018-12-19T02:24:58.624Z,95924.49
2018-12-19T02:27:28.426Z,95921.36
2018-12-19T02:29:57.898Z,95916.32
2018-12-19T02:32:27.036Z,95921.22
2018-12-19T02:34:56.782Z,95917.31
2018-12-19T02:37:25.910Z,95914.02
2018-12-19T02:39:55.004Z,95925.84
2018-12-19T02:42:24.170Z,95937.92
2018-12-19T02:44:53.384Z,95940.53
2018-12-19T02:47:22.546Z,95944.14
2018-12-19T02:49:51.718Z,95944.59
2018-12-19T02:52:20.841Z,95939.63
2018-12-19T02:54:49.958Z,95946.12
2018-12-19T02:57:19.153Z,95951.67
2018-12-19T02:59:48.261Z,95945.63
2018-12-19T03:02:17.420Z,95944.72
2018-12-19T03:04:46.651Z,95945.45
2018-12-19T03:07:15.773Z,95953.37
2018-12-19T03:09:44.916Z,95957.41
2018-12-19T03:12:14.006Z,95958.05
2018-12-19T03:14:43.127Z,95960.25
2018-12-19T03:17:12.451Z,95954.34
2018-12-19T03:19:41.717Z,95954.05
2018-12-19T03:22:10.836Z,95972.28
2018-12-19T03:24:40.840Z,95952.45
2018-12-19T03:27:09.951Z,95949.20
2018-12-19T03:29:40.108Z,95950.66
2018-12-19T03:32:09.232Z,95954.77
2018-12-19T03:34:38.427Z,95968.13
2018-12-19T03:37:07.542Z,95966.87
2018-12-19T03:39:36.748Z,95960.96
2018-12-19T03:42:05.846Z,95963.91
2018-12-19T03:44:35.010Z,95947.75
2018-12-19T03:47:04.139Z,95946.37
2018-12-19T03:49:33.326Z,95942.09
2018-12-19T03:52:02.634Z,95942.09
2018-12-19T03:54:32.042Z,95935.91
2018-12-19T03:57:01.414Z,95928.06
2018-12-19T03:59:30.826Z,95933.43
2018-12-19T04:01:59.930Z,95942.88
2018-12-19T04:04:29.105Z,95935.34
2018-12-19T04:06:58.510Z,95927.73
2018-12-19T04:09:27.618Z,95929.76
2018-12-19T04:11:56.722Z,95937.29
2018-12-19T04:14:26.207Z,95948.36
2018-12-19T04:16:55.303Z,95954.10
2018-12-19T04:19:24.513Z,95969.67
2018-12-19T04:21:53.794Z,95966.73
2018-12-19T04:24:22.889Z,95957.05
2018-12-19T04:26:52.113Z,95950.05
2018-12-19T04:29:21.848Z,95941.75
2018-12-19T04:31:51.132Z,95948.48
2018-12-19T04:34:20.518Z,95946.91
2018-12-19T04:36:49.646Z,95936.05
2018-12-19T04:39:19.447Z,95944.42
2018-12-19T04:41:48.720Z,95939.32
2018-12-19T04:44:17.849Z,95938.44
2018-12-19T04:46:46.966Z,95942.08
2018-12-19T04:49:16.360Z,95946.20
2018-12-19T04:51:45.561Z,95933.42
2018-12-19T04:54:14.717Z,95934.10
2018-12-19T04:56:43.817Z,95935.36
2018-12-19T04:59:13.019Z,95935.45
2018-12-19T05:01:42.195Z,95935.86
2018-12-19T05:04:11.295Z,95939.91
2018-12-19T05:06:40.404Z,95941.45
2018-12-19T05:09:09.532Z,95938.27
2018-12-19T05:11:38.783Z,95934.38
2018-12-19T05:14:08.029Z,95938.00
2018-12-19T05:16:37.175Z,95935.39
2018-12-19T05:19:06.287Z,95938.52
2018-12-19T05:21:35.606Z,95941.83
2018-12-19T05:24:04.970Z,95941.03
2018-12-19T05:26:34.194Z,95942.19
2018-12-19T05:29:03.523Z,95940.16
2018-12-19T05:31:32.871Z,95937.02
2018-12-19T05:34:02.087Z,95942.66
2018-12-19T05:36:31.183Z,95938.92
2018-12-19T05:39:00.564Z,95945.20
2018-12-19T05:41:30.625Z,95945.59
2018-12-19T05:43:59.750Z,95938.87
2018-12-19T05:46:28.904Z,95939.57
2018-12-19T05:48:58.114Z,95931.16
2018-12-19T05:51:27.472Z,95946.48
2018-12-19T05:53:56.660Z,95938.92
2018-12-19T05:56:25.968Z,95936.14
2018-12-19T05:58:55.330Z,95939.67
2018-12-19T06:01:24.498Z,95937.87
2018-12-19T06:03:53.772Z,95946.52
2018-12-19T06:06:23.013Z,95947.33
2018-12-19T06:08:52.700Z,95950.64
2018-12-19T06:11:21.901Z,95952.05
2018-12-19T06:13:51.443Z,95947.79
2018-12-19T06:16:20.777Z,95947.03
2018-12-19T06:18:50.095Z,95951.68
2018-12-19T06:21:19.405Z,95946.05
2018-12-19T06:23:48.595Z,95945.39
2018-12-19T06:26:17.784Z,95944.34
2018-12-19T06:28:46.904Z,95941.62
2018-12-19T06:31:16.179Z,95940.88
2018-12-19T06:33:45.587Z,95941.69
2018-12-19T06:36:15.011Z,95946.20
2018-12-19T06:38:44.277Z,95951.00
2018-12-19T06:41:13.409Z,95940.48
2018-12-19T06:43:42.670Z,95945.95
2018-12-19T06:46:11.924Z,95942.22
2018-12-19T06:48:41.115Z,95943.27
2018-12-19T06:51:10.275Z,95946.92
2018-12-19T06:53:39.391Z,95949.27
2018-12-19T06:56:08.622Z,95951.76
2018-12-19T06:58:37.786Z,95955.20
2018-12-19T07:01:07.082Z,95955.81
2018-12-19T07:03:36.298Z,95958.28
2018-12-19T07:06:05.418Z,95961.28
2018-12-19T07:08:34.670Z,95957.83
2018-12-19T07:11:04.031Z,95953.23
2018-12-19T07:13:33.288Z,95897.28
2018-12-19T07:16:02.477Z,95956.61
2018-12-19T07:18:31.642Z,95957.42
2018-12-19T07:21:01.209Z,95954.58
2018-12-19T07:23:30.344Z,95952.56
2018-12-19T07:25:59.751Z,95956.90
2018-12-19T07:28:28.862Z,95961.53
2018-12-19T07:30:58.039Z,95965.00
2018-12-19T07:33:27.288Z,95963.34
2018-12-19T07:35:56.566Z,95972.12
2018-12-19T07:38:25.742Z,95970.31
2018-12-19T07:40:54.894Z,95978.34
2018-12-19T07:43:24.162Z,95976.28
2018-12-19T07:45:53.455Z,95976.18
2018-12-19T07:48:22.991Z,95981.72
2018-12-19T07:50:52.235Z,95983.78
2018-12-19T07:53:21.637Z,95983.49
2018-12-19T07:55:51.077Z,95989.81
2018-12-19T07:58:20.246Z,95989.78
2018-12-19T08:00:49.345Z,95982.19
2018-12-19T08:03:18.533Z,95987.80
2018-12-19T08:05:47.649Z,95981.81
2018-12-19T08:08:16.744Z,95986.76
2018-12-19T08:10:52.004Z,95987.84
2018-12-19T08:13:17.231Z,95986.80
2018-12-19T08:15:46.517Z,95994.94
2018-12-19T08:18:15.695Z,96003.91
2018-12-19T08:20:44.844Z,95991.69
2018-12-19T08:23:14.055Z,95985.85
2018-12-19T08:25:43.287Z,95984.16
2018-12-19T08:28:12.491Z,95978.50
2018-12-19T08:30:41.675Z,95982.48
2018-12-19T08:33:11.411Z,95993.20
2018-12-19T08:35:40.547Z,95992.95
2018-12-19T08:38:10.819Z,95994.33
2018-12-19T08:40:40.181Z,96003.50
2018-12-19T08:43:09.375Z,96008.17
2018-12-19T08:45:39.059Z,96005.39
2018-12-19T08:48:08.227Z,96000.54
2018-12-19T08:50:37.445Z,95991.77
2018-12-19T08:53:06.652Z,95995.10
2018-12-19T08:55:35.791Z,96002.64
2018-12-19T08:58:05.057Z,96003.56
2018-12-19T09:00:34.186Z,96003.48
2018-12-19T09:03:03.285Z,96005.23
2018-12-19T09:05:32.374Z,96001.84
2018-12-19T09:08:01.558Z,95995.62
2018-12-19T09:10:30.692Z,95998.10
2018-12-19T09:12:59.783Z,95995.34
2018-12-19T09:15:34.311Z,95998.56
2018-12-19T09:18:03.465Z,95994.42
2018-12-19T09:20:33.878Z,95996.38
2018-12-19T09:23:03.158Z,95997.56
2018-12-19T09:25:32.357Z,95994.14
2018-12-19T09:28:02.459Z,95994.14
2018-12-19T09:30:31.630Z,95993.41
2018-12-19T09:33:00.725Z,95989.09
2018-12-19T09:35:29.831Z,95995.34
2018-12-19T09:37:58.975Z,95995.90
2018-12-19T09:40:28.096Z,96001.59
2018-12-19T09:42:57.179Z,95999.46
2018-12-19T09:45:26.286Z,96002.30
2018-12-19T09:47:55.398Z,95995.70
2018-12-19T09:50:24.501Z,95988.17
2018-12-19T09:52:53.612Z,95993.14
2018-12-19T09:55:22.751Z,95984.38
2018-12-19T09:57:51.877Z,95988.53
2018-12-19T10:00:26.390Z,96000.78
2018-12-19T10:02:55.904Z,96000.55
2018-12-19T10:05:25.386Z,95997.63
2018-12-19T10:07:54.490Z,95988.16
2018-12-19T10:10:23.720Z,95988.28
2018-12-19T10:12:52.896Z,95991.78
2018-12-19T10:15:21.985Z,95986.41
2018-12-19T10:17:51.094Z,95970.80
2018-12-19T10:20:20.240Z,95972.75
2018-12-19T10:22:51.659Z,95967.02
2018-12-19T10:25:20.960Z,95965.66
2018-12-19T10:27:50.126Z,95951.59
2018-12-19T10:30:19.260Z,95952.41
2018-12-19T10:32:52.685Z,95937.47
2018-12-19T10:35:21.875Z,95943.33
2018-12-19T10:37:51.433Z,95940.28
2018-12-19T10:40:20.739Z,95938.77
2018-12-19T10:42:49.934Z,95943.00
2018-12-19T10:45:19.079Z,95935.59
2018-12-19T10:47:48.172Z,95941.22
2018-12-19T10:50:17.292Z,95938.12
2018-12-19T10:52:46.492Z,95945.73
2018-12-19T10:55:15.605Z,95949.84
2018-12-19T10:57:44.711Z,95945.24
2018-12-19T11:00:19.312Z,95941.09
2018-12-19T11:02:48.385Z,95929.25
2018-12-19T11:05:17.514Z,95933.13
2018-12-19T11:07:46.603Z,95927.17
2018-12-19T11:10:15.825Z,95926.29
2018-12-19T11:12:44.921Z,95926.23
2018-12-19T11:15:14.020Z,95918.96
2018-12-19T11:17:43.213Z,95929.66
2018-12-19T11:20:12.311Z,95918.18
2018-12-19T11:22:41.406Z,95907.08
2018-12-19T11:25:10.535Z,95913.44
2018-12-19T11:27:39.884Z,95909.02
2018-12-19T11:30:09.569Z,95901.62
2018-12-19T11:32:38.734Z,95898.89
2018-12-19T11:35:08.411Z,95901.68
2018-12-19T11:37:37.603Z,95900.67
2018-12-19T11:40:08.425Z,95886.03
2018-12-19T11:42:37.535Z,95877.41
2018-12-19T11:45:06.791Z,95873.12
2018-12-19T11:47:35.915Z,95865.98
2018-12-19T11:50:06.537Z,95860.54
2018-12-19T11:52:35.663Z,95866.55
2018-12-19T11:55:05.568Z,95858.64
2018-12-19T11:57:34.839Z,95853.62
2018-12-19T12:00:04.830Z,95856.05
2018-12-19T12:02:33.976Z,95865.22
2018-12-19T12:05:03.270Z,95857.18
2018-12-19T12:07:32.449Z,95854.14
2018-12-19T12:10:01.584Z,95849.70
2018-12-19T12:12:30.785Z,95841.36
2018-12-19T12:14:59.955Z,95846.23
2018-12-19T12:17:29.091Z,95837.56
2018-12-19T12:19:58.192Z,95835.66
2018-12-19T12:22:27.407Z,95841.80
2018-12-19T12:24:56.548Z,95835.38
2018-12-19T12:27:25.849Z,95829.78
2018-12-19T12:29:54.947Z,95832.80
2018-12-19T12:32:24.047Z,95828.55
2018-12-19T12:34:53.128Z,95829.11
2018-12-19T12:37:22.228Z,95828.69
2018-12-19T12:39:51.339Z,95834.70
2018-12-19T12:42:20.419Z,95825.20
2018-12-19T12:44:49.887Z,95837.56
2018-12-19T12:47:18.993Z,95840.13
2018-12-19T12:49:48.168Z,95847.14
2018-12-19T12:52:17.339Z,95842.52
2018-12-19T12:54:46.462Z,95846.28
2018-12-19T12:57:15.575Z,95833.03
2018-12-19T12:59:44.658Z,95829.98
2018-12-19T13:02:13.890Z,95826.49
2018-12-19T13:04:43.019Z,95820.16
2018-12-19T13:07:12.180Z,95822.59
2018-12-19T13:09:41.298Z,95824.16
2018-12-19T13:12:10.402Z,95820.88
2018-12-19T13:14:39.590Z,95816.78
2018-12-19T13:17:08.706Z,95820.50
2018-12-19T13:19:37.791Z,95813.19
2018-12-19T13:22:06.984Z,95809.89
2018-12-19T13:24:36.134Z,95808.71
2018-12-19T13:27:05.214Z,95805.32
2018-12-19T13:29:34.399Z,95807.14
2018-12-19T13:32:03.621Z,95812.06
2018-12-19T13:34:32.712Z,95807.05
2018-12-19T13:37:01.810Z,95768.88
2018-12-19T13:39:31.129Z,95804.77
2018-12-19T13:42:05.517Z,95791.84
2018-12-19T13:44:31.321Z,95783.40
2018-12-19T13:47:00.509Z,95782.93
2018-12-19T13:49:29.609Z,95788.51
2018-12-19T13:51:58.699Z,95782.79
2018-12-19T13:54:27.823Z,95789.36
2018-12-19T13:56:57.133Z,95785.50
2018-12-19T13:59:26.223Z,95790.50
2018-12-19T14:01:55.343Z,95783.36
2018-12-19T14:04:24.449Z,95784.16
2018-12-19T14:06:53.563Z,95787.66
2018-12-19T14:09:22.681Z,95785.84
2018-12-19T14:11:51.783Z,95785.27
2018-12-19T14:14:20.931Z,95776.08
2018-12-19T14:16:50.077Z,95779.02
2018-12-19T14:19:19.269Z,95772.79
2018-12-19T14:21:48.343Z,95767.88
2018-12-19T14:24:17.604Z,95770.22
2018-12-19T14:26:46.735Z,95767.36
2018-12-19T14:29:15.839Z,95764.02
2018-12-19T14:31:44.949Z,95762.21
2018-12-19T14:34:14.014Z,95756.91
2018-12-19T14:36:43.262Z,95737.33
2018-12-19T14:39:12.632Z,95747.92
2018-12-19T14:41:42.134Z,95748.39
2018-12-19T14:44:11.247Z,95748.00
2018-12-19T14:46:40.358Z,95741.28
2018-12-19T14:49:13.997Z,95732.85
2018-12-19T14:51:40.865Z,95732.80
2018-12-19T14:54:10.387Z,95729.03
2018-12-19T14:56:39.470Z,95735.81
2018-12-19T14:59:08.794Z,95743.85
2018-12-19T15:01:37.930Z,95752.66
2018-12-19T15:04:07.018Z,95766.06
2018-12-19T15:06:36.882Z,95780.81
2018-12-19T15:09:07.406Z,95783.22
2018-12-19T15:11:36.560Z,95776.84
2018-12-19T15:14:05.750Z,95770.70
2018-12-19T15:16:34.882Z,95772.00
2018-12-19T15:19:04.222Z,95764.70
2018-12-19T15:21:33.450Z,95771.20
2018-12-19T15:24:02.538Z,95767.69
2018-12-19T15:26:31.629Z,95762.80
2018-12-19T15:29:00.909Z,95756.69
2018-12-19T15:31:30.097Z,95759.02
2018-12-19T15:33:59.179Z,95758.64
2018-12-19T15:36:28.743Z,95748.16
2018-12-19T15:38:57.799Z,95744.78
2018-12-19T15:41:26.891Z,95743.49
2018-12-19T15:43:56.007Z,95732.34
2018-12-19T15:46:25.120Z,95730.41
2018-12-19T15:48:54.204Z,95726.23
2018-12-19T15:51:23.431Z,95727.52
2018-12-19T15:53:52.547Z,95715.65
2018-12-19T15:56:21.811Z,95712.36
2018-12-19T15:58:50.927Z,95709.41
2018-12-19T16:01:26.721Z,95706.27
2018-12-19T16:03:56.574Z,95703.84
2018-12-19T16:06:25.675Z,95689.98
2018-12-19T16:08:54.768Z,95677.55
2018-12-19T16:11:23.889Z,95684.21
2018-12-19T16:13:52.994Z,95682.94
2018-12-19T16:16:22.089Z,95689.27
2018-12-19T16:18:51.173Z,95683.93
2018-12-19T16:21:20.298Z,95685.66
2018-12-19T16:23:49.399Z,95684.64
2018-12-19T16:26:18.490Z,95673.08
2018-12-19T16:28:47.568Z,95671.66
2018-12-19T16:31:16.787Z,95666.64
2018-12-19T16:33:45.937Z,95690.50
2018-12-19T16:36:15.102Z,95687.31
2018-12-19T16:38:44.314Z,95706.23
2018-12-19T16:41:13.498Z,95688.94
2018-12-19T16:43:42.594Z,95694.66
2018-12-19T16:46:12.114Z,95691.70
2018-12-19T16:48:41.191Z,95692.41
2018-12-19T16:51:10.282Z,95693.70
2018-12-19T16:53:39.627Z,95695.16
2018-12-19T16:56:08.802Z,95699.02
2018-12-19T16:58:37.998Z,95696.92
2018-12-19T17:01:07.326Z,95701.44
2018-12-19T17:03:36.428Z,95700.16
2018-12-19T17:06:05.606Z,95710.29
2018-12-19T17:08:34.814Z,95701.53
2018-12-19T17:11:04.090Z,95702.83
2018-12-19T17:13:33.224Z,95701.06
2018-12-19T17:16:02.488Z,95699.52
2018-12-19T17:18:31.604Z,95701.66
2018-12-19T17:21:00.770Z,95693.23
2018-12-19T17:23:29.882Z,95688.23
2018-12-19T17:25:58.957Z,95690.22
2018-12-19T17:28:28.073Z,95685.75
2018-12-19T17:30:57.194Z,95687.13
2018-12-19T17:33:26.266Z,95691.62
2018-12-19T17:35:55.457Z,95684.73
2018-12-19T17:38:24.711Z,95677.49
2018-12-19T17:40:53.857Z,95681.59
2018-12-19T17:43:22.954Z,95678.92
2018-12-19T17:45:52.075Z,95680.57
2018-12-19T17:48:21.172Z,95682.35
2018-12-19T17:50:50.370Z,95684.98
2018-12-19T17:53:19.561Z,95674.09
2018-12-19T17:55:48.636Z,95668.45
2018-12-19T17:58:17.743Z,95659.08
2018-12-19T18:00:47.029Z,95655.59
2018-12-19T18:03:16.122Z,95660.59
2018-12-19T18:05:45.296Z,95655.08
2018-12-19T18:08:14.491Z,95646.92
2018-12-19T18:10:43.683Z,95638.43
2018-12-19T18:13:12.819Z,95633.25
2018-12-19T18:15:41.915Z,95620.40
2018-12-19T18:18:11.006Z,95616.41
2018-12-19T18:20:40.122Z,95609.13
2018-12-19T18:23:09.319Z,95606.42
2018-12-19T18:25:38.516Z,95612.98
2018-12-19T18:28:07.913Z,95609.70
2018-12-19T18:30:37.009Z,95617.48
2018-12-19T18:33:06.145Z,95609.01
2018-12-19T18:35:35.228Z,95603.14
2018-12-19T18:38:04.446Z,95610.97
2018-12-19T18:40:33.569Z,95602.97
2018-12-19T18:43:02.653Z,95610.02
2018-12-19T18:45:31.734Z,95621.19
2018-12-19T18:48:00.875Z,95620.93
2018-12-19T18:50:29.970Z,95626.09
2018-12-19T18:52:59.087Z,95624.37
2018-12-19T18:55:28.285Z,95625.51
2018-12-19T18:57:57.455Z,95623.08
2018-12-19T19:00:34.732Z,95625.72
2018-12-19T19:03:04.439Z,95626.77
2018-12-19T19:05:33.679Z,95638.69
2018-12-19T19:08:03.071Z,95640.64
2018-12-19T19:10:32.205Z,95645.45
2018-12-19T19:13:01.310Z,95646.42
2018-12-19T19:15:30.591Z,95644.84
2018-12-19T19:17:59.963Z,95653.73
2018-12-19T19:20:29.139Z,95655.73
2018-12-19T19:22:59.059Z,95654.13
2018-12-19T19:25:28.263Z,95645.23
2018-12-19T19:27:57.336Z,95639.92
2018-12-19T19:30:26.635Z,95636.42
2018-12-19T19:32:55.746Z,95634.39
2018-12-19T19:35:24.944Z,95639.64
2018-12-19T19:37:54.125Z,95654.19
2018-12-19T19:40:23.247Z,95667.70
2018-12-19T19:42:52.402Z,95670.06
2018-12-19T19:45:21.484Z,95673.19
2018-12-19T19:47:50.731Z,95671.64
2018-12-19T19:50:19.831Z,95666.30
2018-12-19T19:52:50.666Z,95665.45
2018-12-19T19:55:19.907Z,95673.74
2018-12-19T19:57:49.129Z,95680.31
2018-12-19T20:00:22.382Z,95679.52
2018-12-19T20:02:51.592Z,95676.91
2018-12-19T20:05:20.677Z,95671.08
2018-12-19T20:07:49.783Z,95675.38
2018-12-19T20:10:18.853Z,95681.39
2018-12-19T20:12:47.968Z,95688.64
2018-12-19T20:15:17.099Z,95687.92
2018-12-19T20:17:46.159Z,95688.48
2018-12-19T20:20:16.533Z,95689.20
2018-12-19T20:22:45.859Z,95692.48
2018-12-19T20:25:14.944Z,95686.20
2018-12-19T20:27:44.061Z,95692.23
2018-12-19T20:30:13.303Z,95696.81
2018-12-19T20:32:42.407Z,95692.07
2018-12-19T20:35:11.703Z,95696.94
2018-12-19T20:37:40.819Z,95701.59
2018-12-19T20:40:09.914Z,95700.62
2018-12-19T20:42:39.101Z,95693.44
2018-12-19T20:45:08.202Z,95702.80
2018-12-19T20:47:37.434Z,95712.83
2018-12-19T20:50:07.128Z,95716.09
2018-12-19T20:52:36.223Z,95718.88
2018-12-19T20:55:06.118Z,95712.29
2018-12-19T20:57:35.423Z,95717.11
2018-12-19T21:00:05.966Z,95719.68
2018-12-19T21:02:35.058Z,95722.51
2018-12-19T21:05:04.389Z,95733.41
2018-12-19T21:07:34.091Z,95722.72
2018-12-19T21:10:03.646Z,95728.48
2018-12-19T21:12:32.736Z,95728.36
2018-12-19T21:15:02.023Z,95728.23
2018-12-19T21:17:36.491Z,95727.42
2018-12-19T21:20:06.313Z,95731.91
2018-12-19T21:22:35.820Z,95718.98
2018-12-19T21:25:05.235Z,95723.23
2018-12-19T21:27:34.439Z,95716.81
2018-12-19T21:30:04.029Z,95720.19
2018-12-19T21:32:33.112Z,95719.95
2018-12-19T21:35:02.207Z,95722.16
2018-12-19T21:37:31.663Z,95718.66
2018-12-19T21:40:00.841Z,95725.40
2018-12-19T21:42:30.673Z,95722.47
2018-12-19T21:44:59.993Z,95723.31
2018-12-19T21:47:29.180Z,95728.37
2018-12-19T21:49:58.600Z,95736.48
2018-12-19T21:52:27.737Z,95727.03
2018-12-19T21:54:56.923Z,95737.42
2018-12-19T21:57:26.145Z,95747.55
2018-12-19T21:59:55.390Z,95735.16
2018-12-19T22:02:24.519Z,95742.33
2018-12-19T22:04:53.771Z,95736.10
2018-12-19T22:07:22.951Z,95745.50
2018-12-19T22:09:52.130Z,95748.23
2018-12-19T22:12:21.287Z,95744.34
2018-12-19T22:14:50.370Z,95745.58
2018-12-19T22:17:24.851Z,95750.97
2018-12-19T22:19:54.128Z,95748.75
2018-12-19T22:22:23.378Z,95742.80
2018-12-19T22:24:52.580Z,95747.50
2018-12-19T22:27:21.919Z,95735.50
2018-12-19T22:29:51.145Z,95737.38
2018-12-19T22:32:20.469Z,95730.80
2018-12-19T22:34:49.613Z,95727.63
2018-12-19T22:37:18.856Z,95721.31
2018-12-19T22:39:48.106Z,95715.67
2018-12-19T22:42:17.379Z,95712.88
2018-12-19T22:44:46.550Z,95717.13
2018-12-19T22:47:15.787Z,95715.70
2018-12-19T22:49:44.941Z,95712.89
2018-12-19T22:52:14.092Z,95707.41
2018-12-19T22:54:43.323Z,95707.03
2018-12-19T22:57:12.696Z,95705.37
2018-12-19T22:59:42.015Z,95705.07
2018-12-19T23:02:16.630Z,95714.34
2018-12-19T23:04:45.908Z,95716.56
2018-12-19T23:07:15.106Z,95717.67
2018-12-19T23:09:44.294Z,95722.97
2018-12-19T23:12:13.602Z,95726.91
2018-12-19T23:14:42.834Z,95716.18
2018-12-19T23:17:17.409Z,95720.58
2018-12-19T23:19:47.034Z,95730.58
2018-12-19T23:22:16.314Z,95722.12
2018-12-19T23:24:45.613Z,95715.28
2018-12-19T23:27:14.839Z,95722.03
2018-12-19T23:29:43.954Z,95719.64
2018-12-19T23:32:15.103Z,95718.02
2018-12-19T23:34:44.338Z,95719.09
2018-12-19T23:37:13.580Z,95728.15
2018-12-19T23:39:42.786Z,95723.95
2018-12-19T23:42:11.966Z,95714.42
2018-12-19T23:44:41.038Z,95714.03
2018-12-19T23:47:10.385Z,95717.89
2018-12-19T23:49:39.490Z,95725.75
2018-12-19T23:52:08.711Z,95724.20
2018-12-19T23:54:38.073Z,95729.09
2018-12-19T23:57:07.339Z,95732.50
2018-12-19T23:59:36.519Z,95734.86
